sensor_id;sensor_type;location;lat;lon;timestamp;temperature;humidity
14248;DHT22;7208;49.826;6.004;2022-07-24T00:00:11;15.30;99.90
14248;DHT22;7208;49.826;6.004;2022-07-24T00:02:37;15.30;99.90
14248;DHT22;7208;49.826;6.004;2022-07-24T00:05:03;15.30;99.90
14248;DHT22;7208;49.826;6.004;2022-07-24T00:07:28;15.20;99.90
14248;DHT22;7208;49.826;6.004;2022-07-24T00:09:54;15.20;99.90
14248;DHT22;7208;49.826;6.004;2022-07-24T00:12:20;15.10;99.90
14248;DHT22;7208;49.826;6.004;2022-07-24T00:14:46;15.10;99.90
14248;DHT22;7208;49.826;6.004;2022-07-24T00:17:12;15.00;99.90
14248;DHT22;7208;49.826;6.004;2022-07-24T00:19:37;15.00;99.90
14248;DHT22;7208;49.826;6.004;2022-07-24T00:22:03;15.00;99.90
14248;DHT22;7208;49.826;6.004;2022-07-24T00:24:29;14.90;99.90
14248;DHT22;7208;49.826;6.004;2022-07-24T00:26:55;14.90;99.90
14248;DHT22;7208;49.826;6.004;2022-07-24T00:29:21;14.90;99.90
14248;DHT22;7208;49.826;6.004;2022-07-24T00:31:46;14.90;99.90
14248;DHT22;7208;49.826;6.004;2022-07-24T00:34:12;14.90;99.90
14248;DHT22;7208;49.826;6.004;2022-07-24T00:36:37;14.90;99.90
14248;DHT22;7208;49.826;6.004;2022-07-24T00:39:04;14.80;99.90
14248;DHT22;7208;49.826;6.004;2022-07-24T00:41:30;14.80;99.90
14248;DHT22;7208;49.826;6.004;2022-07-24T00:44:08;14.80;99.90
14248;DHT22;7208;49.826;6.004;2022-07-24T00:46:35;14.80;99.90
14248;DHT22;7208;49.826;6.004;2022-07-24T00:49:03;14.80;99.90
14248;DHT22;7208;49.826;6.004;2022-07-24T00:51:29;14.70;99.90
14248;DHT22;7208;49.826;6.004;2022-07-24T00:53:54;14.70;99.90
14248;DHT22;7208;49.826;6.004;2022-07-24T00:56:20;14.70;99.90
14248;DHT22;7208;49.826;6.004;2022-07-24T00:58:47;14.60;99.90
14248;DHT22;7208;49.826;6.004;2022-07-24T01:01:14;14.60;99.90
14248;DHT22;7208;49.826;6.004;2022-07-24T01:03:39;14.50;99.90
14248;DHT22;7208;49.826;6.004;2022-07-24T01:06:06;14.50;99.90
14248;DHT22;7208;49.826;6.004;2022-07-24T01:08:33;14.50;99.90
14248;DHT22;7208;49.826;6.004;2022-07-24T01:11:03;14.40;99.90
14248;DHT22;7208;49.826;6.004;2022-07-24T01:13:29;14.40;99.90
14248;DHT22;7208;49.826;6.004;2022-07-24T01:15:56;14.40;99.90
14248;DHT22;7208;49.826;6.004;2022-07-24T01:18:22;14.40;99.90
14248;DHT22;7208;49.826;6.004;2022-07-24T01:20:48;14.40;99.90
14248;DHT22;7208;49.826;6.004;2022-07-24T01:23:14;14.40;99.90
14248;DHT22;7208;49.826;6.004;2022-07-24T01:25:41;14.40;99.90
14248;DHT22;7208;49.826;6.004;2022-07-24T01:28:07;14.30;99.90
14248;DHT22;7208;49.826;6.004;2022-07-24T01:30:33;14.30;99.90
14248;DHT22;7208;49.826;6.004;2022-07-24T01:32:59;14.30;99.90
14248;DHT22;7208;49.826;6.004;2022-07-24T01:35:25;14.20;99.90
14248;DHT22;7208;49.826;6.004;2022-07-24T01:37:52;14.30;99.90
14248;DHT22;7208;49.826;6.004;2022-07-24T01:40:17;14.20;99.90
14248;DHT22;7208;49.826;6.004;2022-07-24T01:42:43;14.20;99.90
14248;DHT22;7208;49.826;6.004;2022-07-24T01:45:09;14.20;99.90
14248;DHT22;7208;49.826;6.004;2022-07-24T01:47:35;14.10;99.90
14248;DHT22;7208;49.826;6.004;2022-07-24T01:50:01;14.10;99.90
14248;DHT22;7208;49.826;6.004;2022-07-24T01:52:26;14.00;99.90
14248;DHT22;7208;49.826;6.004;2022-07-24T01:54:53;14.00;99.90
14248;DHT22;7208;49.826;6.004;2022-07-24T01:57:19;14.20;99.90
14248;DHT22;7208;49.826;6.004;2022-07-24T01:59:44;14.10;99.90
14248;DHT22;7208;49.826;6.004;2022-07-24T02:02:10;14.00;99.90
14248;DHT22;7208;49.826;6.004;2022-07-24T02:04:36;14.00;99.90
14248;DHT22;7208;49.826;6.004;2022-07-24T02:07:01;14.00;99.90
14248;DHT22;7208;49.826;6.004;2022-07-24T02:09:27;14.00;99.90
14248;DHT22;7208;49.826;6.004;2022-07-24T02:11:53;13.90;99.90
14248;DHT22;7208;49.826;6.004;2022-07-24T02:14:19;13.90;99.90
14248;DHT22;7208;49.826;6.004;2022-07-24T02:16:45;13.90;99.90
14248;DHT22;7208;49.826;6.004;2022-07-24T02:19:11;13.80;99.90
14248;DHT22;7208;49.826;6.004;2022-07-24T02:21:37;13.80;99.90
14248;DHT22;7208;49.826;6.004;2022-07-24T02:24:03;13.70;99.90
14248;DHT22;7208;49.826;6.004;2022-07-24T02:26:29;13.70;99.90
14248;DHT22;7208;49.826;6.004;2022-07-24T02:28:55;13.70;99.90
14248;DHT22;7208;49.826;6.004;2022-07-24T02:31:21;13.70;99.90
14248;DHT22;7208;49.826;6.004;2022-07-24T02:33:47;13.60;99.90
14248;DHT22;7208;49.826;6.004;2022-07-24T02:36:13;13.60;99.90
14248;DHT22;7208;49.826;6.004;2022-07-24T02:38:39;13.60;99.90
14248;DHT22;7208;49.826;6.004;2022-07-24T02:41:04;13.60;99.90
14248;DHT22;7208;49.826;6.004;2022-07-24T02:43:30;13.60;99.90
14248;DHT22;7208;49.826;6.004;2022-07-24T02:45:55;13.60;99.90
14248;DHT22;7208;49.826;6.004;2022-07-24T02:48:21;13.60;99.90
14248;DHT22;7208;49.826;6.004;2022-07-24T02:50:47;13.60;99.90
14248;DHT22;7208;49.826;6.004;2022-07-24T02:53:13;13.60;99.90
14248;DHT22;7208;49.826;6.004;2022-07-24T02:55:38;13.50;99.90
14248;DHT22;7208;49.826;6.004;2022-07-24T02:58:04;13.40;99.90
14248;DHT22;7208;49.826;6.004;2022-07-24T03:00:30;13.40;99.90
14248;DHT22;7208;49.826;6.004;2022-07-24T03:02:55;13.30;99.90
14248;DHT22;7208;49.826;6.004;2022-07-24T03:05:21;13.30;99.90
14248;DHT22;7208;49.826;6.004;2022-07-24T03:07:47;13.30;99.90
14248;DHT22;7208;49.826;6.004;2022-07-24T03:10:14;13.30;99.90
14248;DHT22;7208;49.826;6.004;2022-07-24T03:12:41;13.30;99.90
14248;DHT22;7208;49.826;6.004;2022-07-24T03:15:08;13.30;99.90
14248;DHT22;7208;49.826;6.004;2022-07-24T03:17:33;13.30;99.90
14248;DHT22;7208;49.826;6.004;2022-07-24T03:19:59;13.30;99.90
14248;DHT22;7208;49.826;6.004;2022-07-24T03:22:25;13.30;99.90
14248;DHT22;7208;49.826;6.004;2022-07-24T03:24:51;13.30;99.90
14248;DHT22;7208;49.826;6.004;2022-07-24T03:27:16;13.20;99.90
14248;DHT22;7208;49.826;6.004;2022-07-24T03:29:42;13.20;99.90
14248;DHT22;7208;49.826;6.004;2022-07-24T03:32:08;13.30;99.90
14248;DHT22;7208;49.826;6.004;2022-07-24T03:34:33;13.30;99.90
14248;DHT22;7208;49.826;6.004;2022-07-24T03:36:59;13.30;99.90
14248;DHT22;7208;49.826;6.004;2022-07-24T03:39:25;13.20;99.90
14248;DHT22;7208;49.826;6.004;2022-07-24T03:41:51;13.20;99.90
14248;DHT22;7208;49.826;6.004;2022-07-24T03:44:16;13.20;99.90
14248;DHT22;7208;49.826;6.004;2022-07-24T03:46:42;13.10;99.90
14248;DHT22;7208;49.826;6.004;2022-07-24T03:49:08;13.10;99.90
14248;DHT22;7208;49.826;6.004;2022-07-24T03:51:34;13.10;99.90
14248;DHT22;7208;49.826;6.004;2022-07-24T03:54:01;13.00;99.90
14248;DHT22;7208;49.826;6.004;2022-07-24T03:56:27;13.00;99.90
14248;DHT22;7208;49.826;6.004;2022-07-24T03:58:54;13.00;99.90
14248;DHT22;7208;49.826;6.004;2022-07-24T04:01:20;12.90;99.90
14248;DHT22;7208;49.826;6.004;2022-07-24T04:03:46;12.90;99.90
14248;DHT22;7208;49.826;6.004;2022-07-24T04:06:12;12.90;99.90
14248;DHT22;7208;49.826;6.004;2022-07-24T04:08:37;13.00;99.90
14248;DHT22;7208;49.826;6.004;2022-07-24T04:11:03;12.90;99.90
14248;DHT22;7208;49.826;6.004;2022-07-24T04:13:30;13.00;99.90
14248;DHT22;7208;49.826;6.004;2022-07-24T04:15:57;13.00;99.90
14248;DHT22;7208;49.826;6.004;2022-07-24T04:18:23;13.00;99.90
14248;DHT22;7208;49.826;6.004;2022-07-24T04:20:49;13.00;99.90
14248;DHT22;7208;49.826;6.004;2022-07-24T04:23:15;13.00;99.90
14248;DHT22;7208;49.826;6.004;2022-07-24T04:25:41;13.00;99.90
14248;DHT22;7208;49.826;6.004;2022-07-24T04:28:06;13.00;99.90
14248;DHT22;7208;49.826;6.004;2022-07-24T04:30:32;13.10;99.90
14248;DHT22;7208;49.826;6.004;2022-07-24T04:32:58;13.10;99.90
14248;DHT22;7208;49.826;6.004;2022-07-24T04:35:24;13.10;99.90
14248;DHT22;7208;49.826;6.004;2022-07-24T04:37:49;13.10;99.90
14248;DHT22;7208;49.826;6.004;2022-07-24T04:40:16;13.20;99.90
14248;DHT22;7208;49.826;6.004;2022-07-24T04:42:42;13.20;99.90
14248;DHT22;7208;49.826;6.004;2022-07-24T04:45:08;13.20;99.90
14248;DHT22;7208;49.826;6.004;2022-07-24T04:47:35;13.30;99.90
14248;DHT22;7208;49.826;6.004;2022-07-24T04:50:01;13.30;99.90
14248;DHT22;7208;49.826;6.004;2022-07-24T04:52:28;13.40;99.90
14248;DHT22;7208;49.826;6.004;2022-07-24T04:54:53;13.40;99.90
14248;DHT22;7208;49.826;6.004;2022-07-24T04:57:19;13.40;99.90
14248;DHT22;7208;49.826;6.004;2022-07-24T04:59:44;13.50;99.90
14248;DHT22;7208;49.826;6.004;2022-07-24T05:02:10;13.50;99.90
14248;DHT22;7208;49.826;6.004;2022-07-24T05:04:36;13.60;99.90
14248;DHT22;7208;49.826;6.004;2022-07-24T05:07:02;13.60;99.90
14248;DHT22;7208;49.826;6.004;2022-07-24T05:09:28;13.70;99.90
14248;DHT22;7208;49.826;6.004;2022-07-24T05:11:54;13.80;99.90
14248;DHT22;7208;49.826;6.004;2022-07-24T05:14:20;13.90;99.90
14248;DHT22;7208;49.826;6.004;2022-07-24T05:16:46;14.00;99.90
14248;DHT22;7208;49.826;6.004;2022-07-24T05:19:12;14.00;99.90
14248;DHT22;7208;49.826;6.004;2022-07-24T05:21:38;14.00;99.90
14248;DHT22;7208;49.826;6.004;2022-07-24T05:24:04;14.10;99.90
14248;DHT22;7208;49.826;6.004;2022-07-24T05:26:30;14.10;99.90
14248;DHT22;7208;49.826;6.004;2022-07-24T05:28:58;14.20;99.90
14248;DHT22;7208;49.826;6.004;2022-07-24T05:31:24;14.30;99.90
14248;DHT22;7208;49.826;6.004;2022-07-24T05:33:50;14.30;99.90
14248;DHT22;7208;49.826;6.004;2022-07-24T05:36:15;14.40;99.90
14248;DHT22;7208;49.826;6.004;2022-07-24T05:38:41;14.40;99.90
14248;DHT22;7208;49.826;6.004;2022-07-24T05:41:06;14.60;99.90
14248;DHT22;7208;49.826;6.004;2022-07-24T05:43:32;14.70;99.90
14248;DHT22;7208;49.826;6.004;2022-07-24T05:45:58;14.80;99.90
14248;DHT22;7208;49.826;6.004;2022-07-24T05:48:24;14.90;99.90
14248;DHT22;7208;49.826;6.004;2022-07-24T05:50:49;15.00;99.90
14248;DHT22;7208;49.826;6.004;2022-07-24T05:53:15;15.10;99.90
14248;DHT22;7208;49.826;6.004;2022-07-24T05:55:41;15.20;99.90
14248;DHT22;7208;49.826;6.004;2022-07-24T05:58:06;15.30;99.90
14248;DHT22;7208;49.826;6.004;2022-07-24T06:00:32;15.50;99.90
14248;DHT22;7208;49.826;6.004;2022-07-24T06:02:57;15.60;99.90
14248;DHT22;7208;49.826;6.004;2022-07-24T06:05:23;15.70;99.90
14248;DHT22;7208;49.826;6.004;2022-07-24T06:07:49;15.80;99.90
14248;DHT22;7208;49.826;6.004;2022-07-24T06:10:14;15.90;99.90
14248;DHT22;7208;49.826;6.004;2022-07-24T06:12:40;16.00;99.90
14248;DHT22;7208;49.826;6.004;2022-07-24T06:15:06;16.20;99.90
14248;DHT22;7208;49.826;6.004;2022-07-24T06:17:32;16.20;99.90
14248;DHT22;7208;49.826;6.004;2022-07-24T06:19:58;16.30;99.90
14248;DHT22;7208;49.826;6.004;2022-07-24T06:22:23;16.40;99.90
14248;DHT22;7208;49.826;6.004;2022-07-24T06:24:49;16.60;99.90
14248;DHT22;7208;49.826;6.004;2022-07-24T06:27:15;16.70;99.90
14248;DHT22;7208;49.826;6.004;2022-07-24T06:29:40;16.80;99.90
14248;DHT22;7208;49.826;6.004;2022-07-24T06:32:06;16.90;99.90
14248;DHT22;7208;49.826;6.004;2022-07-24T06:34:32;17.10;99.90
14248;DHT22;7208;49.826;6.004;2022-07-24T06:36:57;17.20;99.90
14248;DHT22;7208;49.826;6.004;2022-07-24T06:39:23;17.40;99.90
14248;DHT22;7208;49.826;6.004;2022-07-24T06:41:48;17.50;99.90
14248;DHT22;7208;49.826;6.004;2022-07-24T06:44:14;17.60;99.90
14248;DHT22;7208;49.826;6.004;2022-07-24T06:46:40;17.70;99.90
14248;DHT22;7208;49.826;6.004;2022-07-24T06:49:05;17.80;99.90
14248;DHT22;7208;49.826;6.004;2022-07-24T06:51:31;17.90;99.90
14248;DHT22;7208;49.826;6.004;2022-07-24T06:53:56;18.00;99.90
14248;DHT22;7208;49.826;6.004;2022-07-24T06:56:22;18.20;99.90
14248;DHT22;7208;49.826;6.004;2022-07-24T06:58:48;18.30;99.90
14248;DHT22;7208;49.826;6.004;2022-07-24T07:01:13;18.50;99.90
14248;DHT22;7208;49.826;6.004;2022-07-24T07:03:39;18.60;99.90
14248;DHT22;7208;49.826;6.004;2022-07-24T07:06:05;18.70;99.90
14248;DHT22;7208;49.826;6.004;2022-07-24T07:08:31;18.90;99.90
14248;DHT22;7208;49.826;6.004;2022-07-24T07:10:57;19.00;99.90
14248;DHT22;7208;49.826;6.004;2022-07-24T07:13:23;19.10;99.90
14248;DHT22;7208;49.826;6.004;2022-07-24T07:15:48;19.30;99.90
14248;DHT22;7208;49.826;6.004;2022-07-24T07:18:14;19.50;99.90
14248;DHT22;7208;49.826;6.004;2022-07-24T07:20:40;19.60;99.90
14248;DHT22;7208;49.826;6.004;2022-07-24T07:23:06;19.80;99.90
14248;DHT22;7208;49.826;6.004;2022-07-24T07:25:32;19.90;99.90
14248;DHT22;7208;49.826;6.004;2022-07-24T07:27:57;20.00;99.90
14248;DHT22;7208;49.826;6.004;2022-07-24T07:30:23;20.20;99.90
14248;DHT22;7208;49.826;6.004;2022-07-24T07:32:49;20.40;99.90
14248;DHT22;7208;49.826;6.004;2022-07-24T07:35:14;20.70;99.90
14248;DHT22;7208;49.826;6.004;2022-07-24T07:37:40;20.90;99.90
14248;DHT22;7208;49.826;6.004;2022-07-24T07:40:06;21.40;99.90
14248;DHT22;7208;49.826;6.004;2022-07-24T07:42:32;24.20;99.90
14248;DHT22;7208;49.826;6.004;2022-07-24T07:44:58;25.80;98.20
14248;DHT22;7208;49.826;6.004;2022-07-24T07:47:23;27.50;97.90
14248;DHT22;7208;49.826;6.004;2022-07-24T07:49:49;28.10;90.60
14248;DHT22;7208;49.826;6.004;2022-07-24T07:52:14;29.00;84.00
14248;DHT22;7208;49.826;6.004;2022-07-24T07:54:40;29.60;82.20
14248;DHT22;7208;49.826;6.004;2022-07-24T07:57:06;29.60;82.30
14248;DHT22;7208;49.826;6.004;2022-07-24T07:59:31;30.20;75.70
14248;DHT22;7208;49.826;6.004;2022-07-24T08:01:57;29.70;72.30
14248;DHT22;7208;49.826;6.004;2022-07-24T08:04:22;29.90;70.80
14248;DHT22;7208;49.826;6.004;2022-07-24T08:06:48;29.80;69.00
14248;DHT22;7208;49.826;6.004;2022-07-24T08:09:14;28.60;67.90
14248;DHT22;7208;49.826;6.004;2022-07-24T08:11:39;28.20;71.50
14248;DHT22;7208;49.826;6.004;2022-07-24T08:14:05;28.20;72.50
14248;DHT22;7208;49.826;6.004;2022-07-24T08:16:31;28.30;71.40
14248;DHT22;7208;49.826;6.004;2022-07-24T08:18:56;27.60;71.20
14248;DHT22;7208;49.826;6.004;2022-07-24T08:21:22;28.30;73.20
14248;DHT22;7208;49.826;6.004;2022-07-24T08:23:48;28.40;70.90
14248;DHT22;7208;49.826;6.004;2022-07-24T08:26:14;28.30;71.00
14248;DHT22;7208;49.826;6.004;2022-07-24T08:28:40;28.10;75.10
14248;DHT22;7208;49.826;6.004;2022-07-24T08:31:06;27.80;75.30
14248;DHT22;7208;49.826;6.004;2022-07-24T08:33:32;27.80;72.30
14248;DHT22;7208;49.826;6.004;2022-07-24T08:35:57;27.70;73.30
14248;DHT22;7208;49.826;6.004;2022-07-24T08:38:23;27.30;75.20
14248;DHT22;7208;49.826;6.004;2022-07-24T08:40:50;27.30;72.80
14248;DHT22;7208;49.826;6.004;2022-07-24T08:43:16;27.40;75.40
14248;DHT22;7208;49.826;6.004;2022-07-24T08:45:42;27.80;79.40
14248;DHT22;7208;49.826;6.004;2022-07-24T08:48:10;27.70;76.50
14248;DHT22;7208;49.826;6.004;2022-07-24T08:50:38;28.00;75.30
14248;DHT22;7208;49.826;6.004;2022-07-24T08:53:06;28.00;81.30
14248;DHT22;7208;49.826;6.004;2022-07-24T08:55:32;28.10;76.20
14248;DHT22;7208;49.826;6.004;2022-07-24T08:57:59;27.70;74.90
14248;DHT22;7208;49.826;6.004;2022-07-24T09:00:26;27.80;77.40
14248;DHT22;7208;49.826;6.004;2022-07-24T09:02:52;27.80;76.70
14248;DHT22;7208;49.826;6.004;2022-07-24T09:05:18;27.70;76.50
14248;DHT22;7208;49.826;6.004;2022-07-24T09:07:44;27.70;73.50
14248;DHT22;7208;49.826;6.004;2022-07-24T09:10:17;27.30;72.90
14248;DHT22;7208;49.826;6.004;2022-07-24T09:12:45;27.70;77.00
14248;DHT22;7208;49.826;6.004;2022-07-24T09:15:16;27.70;78.20
14248;DHT22;7208;49.826;6.004;2022-07-24T09:17:49;28.00;74.10
14248;DHT22;7208;49.826;6.004;2022-07-24T09:20:14;27.80;73.60
14248;DHT22;7208;49.826;6.004;2022-07-24T09:22:42;27.50;75.20
14248;DHT22;7208;49.826;6.004;2022-07-24T09:25:12;27.30;77.40
14248;DHT22;7208;49.826;6.004;2022-07-24T09:27:45;27.20;75.90
14248;DHT22;7208;49.826;6.004;2022-07-24T09:30:33;26.80;77.00
14248;DHT22;7208;49.826;6.004;2022-07-24T09:33:06;26.60;82.30
14248;DHT22;7208;49.826;6.004;2022-07-24T09:35:36;26.60;77.60
14248;DHT22;7208;49.826;6.004;2022-07-24T09:38:07;26.90;77.80
14248;DHT22;7208;49.826;6.004;2022-07-24T09:40:35;27.20;76.90
14248;DHT22;7208;49.826;6.004;2022-07-24T09:48:23;27.20;77.20
14248;DHT22;7208;49.826;6.004;2022-07-24T09:50:53;27.20;72.70
14248;DHT22;7208;49.826;6.004;2022-07-24T09:53:21;27.00;73.40
14248;DHT22;7208;49.826;6.004;2022-07-24T09:56:04;27.00;75.30
14248;DHT22;7208;49.826;6.004;2022-07-24T09:58:31;26.70;76.40
14248;DHT22;7208;49.826;6.004;2022-07-24T10:00:59;27.20;77.00
14248;DHT22;7208;49.826;6.004;2022-07-24T10:03:31;27.40;79.20
14248;DHT22;7208;49.826;6.004;2022-07-24T10:06:02;27.70;79.20
14248;DHT22;7208;49.826;6.004;2022-07-24T10:08:30;28.20;73.90
14248;DHT22;7208;49.826;6.004;2022-07-24T10:10:56;28.20;74.70
14248;DHT22;7208;49.826;6.004;2022-07-24T10:13:22;28.10;72.90
14248;DHT22;7208;49.826;6.004;2022-07-24T10:18:54;28.50;76.30
14248;DHT22;7208;49.826;6.004;2022-07-24T10:26:45;28.40;70.30
14248;DHT22;7208;49.826;6.004;2022-07-24T10:29:19;28.60;71.20
14248;DHT22;7208;49.826;6.004;2022-07-24T10:31:50;28.60;70.40
14248;DHT22;7208;49.826;6.004;2022-07-24T10:37:13;28.40;71.90
14248;DHT22;7208;49.826;6.004;2022-07-24T10:39:50;28.60;69.20
14248;DHT22;7208;49.826;6.004;2022-07-24T10:42:18;28.50;68.10
14248;DHT22;7208;49.826;6.004;2022-07-24T10:44:43;28.60;64.70
14248;DHT22;7208;49.826;6.004;2022-07-24T10:47:11;28.40;66.40
14248;DHT22;7208;49.826;6.004;2022-07-24T10:49:47;28.70;67.30
14248;DHT22;7208;49.826;6.004;2022-07-24T10:52:31;28.30;69.70
14248;DHT22;7208;49.826;6.004;2022-07-24T10:55:32;28.70;67.50
14248;DHT22;7208;49.826;6.004;2022-07-24T10:58:03;29.10;64.70
14248;DHT22;7208;49.826;6.004;2022-07-24T11:00:39;29.30;65.00
14248;DHT22;7208;49.826;6.004;2022-07-24T11:03:07;29.00;64.60
14248;DHT22;7208;49.826;6.004;2022-07-24T11:05:35;28.50;62.10
14248;DHT22;7208;49.826;6.004;2022-07-24T11:10:50;28.70;65.60
14248;DHT22;7208;49.826;6.004;2022-07-24T11:24:18;29.00;64.90
14248;DHT22;7208;49.826;6.004;2022-07-24T11:26:55;29.50;66.00
14248;DHT22;7208;49.826;6.004;2022-07-24T11:29:24;29.60;62.70
14248;DHT22;7208;49.826;6.004;2022-07-24T11:31:56;29.40;60.20
14248;DHT22;7208;49.826;6.004;2022-07-24T11:34:23;29.10;59.30
14248;DHT22;7208;49.826;6.004;2022-07-24T11:36:51;29.50;62.20
14248;DHT22;7208;49.826;6.004;2022-07-24T11:39:19;29.70;59.40
14248;DHT22;7208;49.826;6.004;2022-07-24T11:41:58;29.40;59.60
14248;DHT22;7208;49.826;6.004;2022-07-24T11:46:55;29.40;59.50
14248;DHT22;7208;49.826;6.004;2022-07-24T11:49:23;29.40;57.20
14248;DHT22;7208;49.826;6.004;2022-07-24T11:51:50;29.50;58.30
14248;DHT22;7208;49.826;6.004;2022-07-24T11:54:25;29.70;57.30
14248;DHT22;7208;49.826;6.004;2022-07-24T11:56:52;29.60;57.30
14248;DHT22;7208;49.826;6.004;2022-07-24T11:59:26;29.80;56.20
14248;DHT22;7208;49.826;6.004;2022-07-24T12:02:07;29.50;56.20
14248;DHT22;7208;49.826;6.004;2022-07-24T12:04:33;30.00;58.30
14248;DHT22;7208;49.826;6.004;2022-07-24T12:07:00;30.40;60.30
14248;DHT22;7208;49.826;6.004;2022-07-24T12:09:26;30.70;56.30
14248;DHT22;7208;49.826;6.004;2022-07-24T12:11:52;30.70;56.20
14248;DHT22;7208;49.826;6.004;2022-07-24T12:14:21;30.70;55.70
14248;DHT22;7208;49.826;6.004;2022-07-24T12:16:55;30.80;54.90
14248;DHT22;7208;49.826;6.004;2022-07-24T12:19:22;30.60;54.80
14248;DHT22;7208;49.826;6.004;2022-07-24T12:21:50;30.50;56.80
14248;DHT22;7208;49.826;6.004;2022-07-24T12:24:16;30.50;54.70
14248;DHT22;7208;49.826;6.004;2022-07-24T12:27:08;30.00;54.40
14248;DHT22;7208;49.826;6.004;2022-07-24T12:29:42;30.10;55.20
14248;DHT22;7208;49.826;6.004;2022-07-24T12:32:16;30.10;55.00
14248;DHT22;7208;49.826;6.004;2022-07-24T12:34:47;30.00;55.90
14248;DHT22;7208;49.826;6.004;2022-07-24T12:37:19;30.00;52.80
14248;DHT22;7208;49.826;6.004;2022-07-24T12:39:49;30.20;55.30
14248;DHT22;7208;49.826;6.004;2022-07-24T12:42:16;29.90;53.40
14248;DHT22;7208;49.826;6.004;2022-07-24T12:44:43;30.50;54.20
14248;DHT22;7208;49.826;6.004;2022-07-24T12:47:10;30.80;51.10
14248;DHT22;7208;49.826;6.004;2022-07-24T12:49:43;31.00;53.70
14248;DHT22;7208;49.826;6.004;2022-07-24T12:52:25;31.00;53.10
14248;DHT22;7208;49.826;6.004;2022-07-24T12:54:53;31.30;53.80
14248;DHT22;7208;49.826;6.004;2022-07-24T12:57:22;31.10;51.20
14248;DHT22;7208;49.826;6.004;2022-07-24T12:59:49;30.90;54.50
14248;DHT22;7208;49.826;6.004;2022-07-24T13:02:17;30.70;51.10
14248;DHT22;7208;49.826;6.004;2022-07-24T13:04:54;30.90;50.90
14248;DHT22;7208;49.826;6.004;2022-07-24T13:07:24;31.00;51.40
14248;DHT22;7208;49.826;6.004;2022-07-24T13:09:51;31.60;50.50
14248;DHT22;7208;49.826;6.004;2022-07-24T13:12:17;31.70;49.20
14248;DHT22;7208;49.826;6.004;2022-07-24T13:14:43;31.40;49.90
14248;DHT22;7208;49.826;6.004;2022-07-24T13:17:13;31.30;49.00
14248;DHT22;7208;49.826;6.004;2022-07-24T13:19:44;31.00;50.60
14248;DHT22;7208;49.826;6.004;2022-07-24T13:22:10;31.00;51.30
14248;DHT22;7208;49.826;6.004;2022-07-24T13:24:37;31.40;48.90
14248;DHT22;7208;49.826;6.004;2022-07-24T13:27:03;31.50;49.20
14248;DHT22;7208;49.826;6.004;2022-07-24T13:29:29;31.40;48.80
14248;DHT22;7208;49.826;6.004;2022-07-24T13:31:55;31.60;48.90
14248;DHT22;7208;49.826;6.004;2022-07-24T13:34:22;31.80;49.00
14248;DHT22;7208;49.826;6.004;2022-07-24T13:36:48;31.80;46.10
14248;DHT22;7208;49.826;6.004;2022-07-24T13:39:14;32.10;46.40
14248;DHT22;7208;49.826;6.004;2022-07-24T13:41:40;31.80;45.60
14248;DHT22;7208;49.826;6.004;2022-07-24T13:44:06;32.10;45.40
14248;DHT22;7208;49.826;6.004;2022-07-24T13:46:33;32.50;46.20
14248;DHT22;7208;49.826;6.004;2022-07-24T13:49:01;32.30;45.60
14248;DHT22;7208;49.826;6.004;2022-07-24T13:51:27;32.10;47.00
14248;DHT22;7208;49.826;6.004;2022-07-24T13:53:53;32.10;45.30
14248;DHT22;7208;49.826;6.004;2022-07-24T13:56:20;32.10;46.00
14248;DHT22;7208;49.826;6.004;2022-07-24T13:58:48;32.30;45.90
14248;DHT22;7208;49.826;6.004;2022-07-24T14:01:13;32.30;45.00
14248;DHT22;7208;49.826;6.004;2022-07-24T14:03:39;32.40;44.70
14248;DHT22;7208;49.826;6.004;2022-07-24T14:06:08;32.30;45.10
14248;DHT22;7208;49.826;6.004;2022-07-24T14:08:35;32.30;44.20
14248;DHT22;7208;49.826;6.004;2022-07-24T14:11:01;32.30;45.50
14248;DHT22;7208;49.826;6.004;2022-07-24T14:13:26;32.30;43.70
14248;DHT22;7208;49.826;6.004;2022-07-24T14:15:52;32.50;44.20
14248;DHT22;7208;49.826;6.004;2022-07-24T14:18:18;33.00;41.70
14248;DHT22;7208;49.826;6.004;2022-07-24T14:20:43;33.50;45.00
14248;DHT22;7208;49.826;6.004;2022-07-24T14:23:09;34.00;41.20
14248;DHT22;7208;49.826;6.004;2022-07-24T14:25:35;33.80;42.00
14248;DHT22;7208;49.826;6.004;2022-07-24T14:28:01;34.00;42.90
14248;DHT22;7208;49.826;6.004;2022-07-24T14:30:26;34.00;39.90
14248;DHT22;7208;49.826;6.004;2022-07-24T14:32:52;34.00;41.10
14248;DHT22;7208;49.826;6.004;2022-07-24T14:35:18;34.10;40.80
14248;DHT22;7208;49.826;6.004;2022-07-24T14:37:43;32.90;40.90
14248;DHT22;7208;49.826;6.004;2022-07-24T14:40:09;33.20;41.50
14248;DHT22;7208;49.826;6.004;2022-07-24T14:42:35;33.70;42.20
14248;DHT22;7208;49.826;6.004;2022-07-24T14:45:01;33.80;42.80
14248;DHT22;7208;49.826;6.004;2022-07-24T14:47:28;33.80;42.40
14248;DHT22;7208;49.826;6.004;2022-07-24T14:49:54;34.10;41.80
14248;DHT22;7208;49.826;6.004;2022-07-24T14:52:21;34.00;40.30
14248;DHT22;7208;49.826;6.004;2022-07-24T14:54:47;34.10;39.90
14248;DHT22;7208;49.826;6.004;2022-07-24T14:57:13;34.10;40.40
14248;DHT22;7208;49.826;6.004;2022-07-24T14:59:39;33.80;40.90
14248;DHT22;7208;49.826;6.004;2022-07-24T15:02:07;34.20;40.80
14248;DHT22;7208;49.826;6.004;2022-07-24T15:04:33;34.20;40.70
14248;DHT22;7208;49.826;6.004;2022-07-24T15:06:58;34.60;39.50
14248;DHT22;7208;49.826;6.004;2022-07-24T15:09:24;34.60;38.80
14248;DHT22;7208;49.826;6.004;2022-07-24T15:11:50;34.70;38.40
14248;DHT22;7208;49.826;6.004;2022-07-24T15:14:15;34.20;39.20
14248;DHT22;7208;49.826;6.004;2022-07-24T15:16:41;34.40;39.70
14248;DHT22;7208;49.826;6.004;2022-07-24T15:19:07;33.90;39.30
14248;DHT22;7208;49.826;6.004;2022-07-24T15:21:33;34.40;40.20
14248;DHT22;7208;49.826;6.004;2022-07-24T15:23:58;33.80;39.00
14248;DHT22;7208;49.826;6.004;2022-07-24T15:26:24;34.20;39.20
14248;DHT22;7208;49.826;6.004;2022-07-24T15:28:50;35.10;37.40
14248;DHT22;7208;49.826;6.004;2022-07-24T15:31:15;35.20;38.40
14248;DHT22;7208;49.826;6.004;2022-07-24T15:33:45;35.10;38.20
14248;DHT22;7208;49.826;6.004;2022-07-24T15:36:11;34.30;40.00
14248;DHT22;7208;49.826;6.004;2022-07-24T15:38:37;34.90;38.40
14248;DHT22;7208;49.826;6.004;2022-07-24T15:41:03;34.90;38.30
14248;DHT22;7208;49.826;6.004;2022-07-24T15:43:29;35.20;39.10
14248;DHT22;7208;49.826;6.004;2022-07-24T15:45:54;34.90;38.70
14248;DHT22;7208;49.826;6.004;2022-07-24T15:48:20;35.30;37.10
14248;DHT22;7208;49.826;6.004;2022-07-24T15:50:46;34.70;37.00
14248;DHT22;7208;49.826;6.004;2022-07-24T15:53:11;34.60;38.30
14248;DHT22;7208;49.826;6.004;2022-07-24T15:55:37;35.20;40.20
14248;DHT22;7208;49.826;6.004;2022-07-24T15:58:03;34.90;36.40
14248;DHT22;7208;49.826;6.004;2022-07-24T16:00:29;35.00;36.60
14248;DHT22;7208;49.826;6.004;2022-07-24T16:02:56;34.70;37.70
14248;DHT22;7208;49.826;6.004;2022-07-24T16:05:22;34.60;37.70
14248;DHT22;7208;49.826;6.004;2022-07-24T16:07:50;34.10;38.70
14248;DHT22;7208;49.826;6.004;2022-07-24T16:10:16;34.70;37.60
14248;DHT22;7208;49.826;6.004;2022-07-24T16:12:43;34.70;37.10
14248;DHT22;7208;49.826;6.004;2022-07-24T16:15:09;34.70;37.60